sensor_id;sensor_type;location;lat;lon;timestamp;pressure;altitude;pressure_sealevel;temperature;humidity
11172;BME280;5642;50.830;12.082;2023-09-18T00:01:24;99071.88;;;19.38;38.43
11172;BME280;5642;50.830;12.082;2023-09-18T00:03:55;99076.75;;;19.44;38.28
11172;BME280;5642;50.830;12.082;2023-09-18T00:06:32;99080.34;;;19.43;38.64
11172;BME280;5642;50.830;12.082;2023-09-18T00:09:04;99084.91;;;19.41;38.38
11172;BME280;5642;50.830;12.082;2023-09-18T00:11:37;99075.38;;;19.38;38.62
11172;BME280;5642;50.830;12.082;2023-09-18T00:14:24;99060.88;;;19.31;38.63
11172;BME280;5642;50.830;12.082;2023-09-18T00:16:58;99058.22;;;19.31;38.78
11172;BME280;5642;50.830;12.082;2023-09-18T00:19:26;99072.19;;;19.33;38.78
11172;BME280;5642;50.830;12.082;2023-09-18T00:21:57;99054.16;;;19.26;38.71
11172;BME280;5642;50.830;12.082;2023-09-18T00:24:42;99066.38;;;19.28;39.01
11172;BME280;5642;50.830;12.082;2023-09-18T00:27:13;99059.25;;;19.29;38.97
11172;BME280;5642;50.830;12.082;2023-09-18T00:29:44;99048.03;;;19.25;39.01
11172;BME280;5642;50.830;12.082;2023-09-18T00:32:15;99049.84;;;19.25;39.27
11172;BME280;5642;50.830;12.082;2023-09-18T00:34:46;99051.00;;;19.21;39.23
11172;BME280;5642;50.830;12.082;2023-09-18T00:37:18;99002.34;;;18.96;39.10
11172;BME280;5642;50.830;12.082;2023-09-18T00:39:44;99037.84;;;19.19;39.21
11172;BME280;5642;50.830;12.082;2023-09-18T00:42:12;99012.28;;;19.05;39.25
11172;BME280;5642;50.830;12.082;2023-09-18T00:44:44;99042.09;;;19.22;39.34
11172;BME280;5642;50.830;12.082;2023-09-18T00:47:15;99034.13;;;19.22;39.31
11172;BME280;5642;50.830;12.082;2023-09-18T00:49:48;99030.84;;;19.18;39.28
11172;BME280;5642;50.830;12.082;2023-09-18T00:52:21;99036.03;;;19.20;39.45
11172;BME280;5642;50.830;12.082;2023-09-18T00:54:53;99015.69;;;19.07;39.37
11172;BME280;5642;50.830;12.082;2023-09-18T00:57:24;99002.63;;;19.04;39.30
11172;BME280;5642;50.830;12.082;2023-09-18T00:59:54;99005.41;;;19.03;39.57
11172;BME280;5642;50.830;12.082;2023-09-18T01:02:23;99010.47;;;19.06;39.60
11172;BME280;5642;50.830;12.082;2023-09-18T01:04:58;99009.97;;;19.01;39.67
11172;BME280;5642;50.830;12.082;2023-09-18T01:07:34;98986.84;;;18.90;39.82
11172;BME280;5642;50.830;12.082;2023-09-18T01:10:01;98997.66;;;19.00;39.86
11172;BME280;5642;50.830;12.082;2023-09-18T01:13:04;98998.72;;;18.97;40.00
11172;BME280;5642;50.830;12.082;2023-09-18T01:15:42;98995.56;;;18.92;40.00
11172;BME280;5642;50.830;12.082;2023-09-18T01:18:17;98957.53;;;18.68;39.93
11172;BME280;5642;50.830;12.082;2023-09-18T01:20:49;98981.69;;;18.89;40.05
11172;BME280;5642;50.830;12.082;2023-09-18T01:23:15;98968.41;;;18.76;40.01
11172;BME280;5642;50.830;12.082;2023-09-18T01:25:42;98975.22;;;18.80;40.11
11172;BME280;5642;50.830;12.082;2023-09-18T01:28:16;98976.28;;;18.77;40.08
11172;BME280;5642;50.830;12.082;2023-09-18T01:30:46;98953.63;;;18.61;40.05
11172;BME280;5642;50.830;12.082;2023-09-18T01:33:15;98953.94;;;18.56;40.22
11172;BME280;5642;50.830;12.082;2023-09-18T01:36:00;98922.03;;;18.32;40.29
11172;BME280;5642;50.830;12.082;2023-09-18T01:38:27;98971.09;;;18.51;40.13
11172;BME280;5642;50.830;12.082;2023-09-18T01:40:56;98977.88;;;18.55;40.30
11172;BME280;5642;50.830;12.082;2023-09-18T01:43:32;98921.19;;;18.19;40.34
11172;BME280;5642;50.830;12.082;2023-09-18T01:46:08;98952.06;;;18.33;40.43
11172;BME280;5642;50.830;12.082;2023-09-18T01:48:49;98964.03;;;18.38;40.54
11172;BME280;5642;50.830;12.082;2023-09-18T01:51:21;98959.78;;;18.36;40.58
11172;BME280;5642;50.830;12.082;2023-09-18T01:53:52;98928.31;;;18.19;40.63
11172;BME280;5642;50.830;12.082;2023-09-18T01:56:36;98933.72;;;18.17;40.74
11172;BME280;5642;50.830;12.082;2023-09-18T01:59:06;98952.34;;;18.28;40.86
11172;BME280;5642;50.830;12.082;2023-09-18T02:01:44;98925.44;;;18.09;40.73
11172;BME280;5642;50.830;12.082;2023-09-18T02:04:17;98950.88;;;18.24;40.82
11172;BME280;5642;50.830;12.082;2023-09-18T02:06:52;98935.41;;;18.18;40.80
11172;BME280;5642;50.830;12.082;2023-09-18T02:09:36;98949.28;;;18.22;41.10
11172;BME280;5642;50.830;12.082;2023-09-18T02:12:04;98946.13;;;18.17;40.80
11172;BME280;5642;50.830;12.082;2023-09-18T02:14:31;98929.91;;;18.09;40.92
11172;BME280;5642;50.830;12.082;2023-09-18T02:17:00;98941.78;;;18.16;40.99
11172;BME280;5642;50.830;12.082;2023-09-18T02:19:26;98921.53;;;18.02;40.90
11172;BME280;5642;50.830;12.082;2023-09-18T02:21:58;98936.16;;;18.08;41.09
11172;BME280;5642;50.830;12.082;2023-09-18T02:24:30;98887.50;;;17.83;41.15
11172;BME280;5642;50.830;12.082;2023-09-18T02:27:05;98912.22;;;17.96;41.04
11172;BME280;5642;50.830;12.082;2023-09-18T02:29:49;98893.97;;;17.79;41.21
11172;BME280;5642;50.830;12.082;2023-09-18T02:32:24;98902.34;;;17.86;41.22
11172;BME280;5642;50.830;12.082;2023-09-18T02:35:06;98918.88;;;17.89;41.32
11172;BME280;5642;50.830;12.082;2023-09-18T02:37:38;98923.44;;;17.87;41.49
11172;BME280;5642;50.830;12.082;2023-09-18T02:40:09;98921.84;;;17.85;41.62
11172;BME280;5642;50.830;12.082;2023-09-18T02:42:53;98887.38;;;17.59;41.52
11172;BME280;5642;50.830;12.082;2023-09-18T02:45:19;98890.66;;;17.63;41.52
11172;BME280;5642;50.830;12.082;2023-09-18T02:47:51;98876.13;;;17.56;41.60
11172;BME280;5642;50.830;12.082;2023-09-18T02:50:26;98914.41;;;17.77;41.72
11172;BME280;5642;50.830;12.082;2023-09-18T02:53:23;98891.53;;;17.64;41.71
11172;BME280;5642;50.830;12.082;2023-09-18T02:55:56;98876.03;;;17.57;41.74
11172;BME280;5642;50.830;12.082;2023-09-18T02:58:27;98903.41;;;17.71;41.76
11172;BME280;5642;50.830;12.082;2023-09-18T03:01:02;98886.97;;;17.66;41.73
11172;BME280;5642;50.830;12.082;2023-09-18T03:03:50;98853.34;;;17.41;41.92
11172;BME280;5642;50.830;12.082;2023-09-18T03:06:27;98880.38;;;17.58;41.74
11172;BME280;5642;50.830;12.082;2023-09-18T03:09:02;98899.38;;;17.65;42.00
11172;BME280;5642;50.830;12.082;2023-09-18T03:11:39;98886.22;;;17.64;41.90
11172;BME280;5642;50.830;12.082;2023-09-18T03:14:10;98874.13;;;17.47;42.03
11172;BME280;5642;50.830;12.082;2023-09-18T03:16:53;98869.34;;;17.52;41.88
11172;BME280;5642;50.830;12.082;2023-09-18T03:19:25;98859.47;;;17.41;41.99
11172;BME280;5642;50.830;12.082;2023-09-18T03:21:58;98898.06;;;17.58;42.05
11172;BME280;5642;50.830;12.082;2023-09-18T03:24:33;98883.72;;;17.48;42.17
11172;BME280;5642;50.830;12.082;2023-09-18T03:27:05;98873.28;;;17.46;42.35
11172;BME280;5642;50.830;12.082;2023-09-18T03:29:36;98855.97;;;17.28;42.10
11172;BME280;5642;50.830;12.082;2023-09-18T03:32:08;98872.09;;;17.38;42.10
11172;BME280;5642;50.830;12.082;2023-09-18T03:34:53;98861.16;;;17.30;42.17
11172;BME280;5642;50.830;12.082;2023-09-18T03:37:25;98858.00;;;17.25;42.29
11172;BME280;5642;50.830;12.082;2023-09-18T03:39:57;98859.69;;;17.26;42.30
11172;BME280;5642;50.830;12.082;2023-09-18T03:42:23;98852.69;;;17.25;42.47
11172;BME280;5642;50.830;12.082;2023-09-18T03:44:53;98863.81;;;17.30;42.49
11172;BME280;5642;50.830;12.082;2023-09-18T03:47:25;98839.03;;;17.18;42.34
11172;BME280;5642;50.830;12.082;2023-09-18T03:49:51;98860.31;;;17.29;42.58
11172;BME280;5642;50.830;12.082;2023-09-18T03:52:36;98851.63;;;17.27;42.65
11172;BME280;5642;50.830;12.082;2023-09-18T03:55:07;98850.91;;;17.25;42.62
11172;BME280;5642;50.830;12.082;2023-09-18T03:57:34;98821.56;;;17.15;42.72
11172;BME280;5642;50.830;12.082;2023-09-18T04:00:11;98842.53;;;17.18;42.62
11172;BME280;5642;50.830;12.082;2023-09-18T04:02:43;98828.13;;;17.10;42.68
11172;BME280;5642;50.830;12.082;2023-09-18T04:05:12;98806.06;;;16.97;42.62
11172;BME280;5642;50.830;12.082;2023-09-18T04:07:39;98808.00;;;17.07;42.71
11172;BME280;5642;50.830;12.082;2023-09-18T04:10:07;98811.81;;;17.03;42.73
11172;BME280;5642;50.830;12.082;2023-09-18T04:12:42;98820.19;;;17.10;42.78
11172;BME280;5642;50.830;12.082;2023-09-18T04:15:16;98829.69;;;17.12;42.67
11172;BME280;5642;50.830;12.082;2023-09-18T04:17:54;98809.16;;;17.03;42.68
11172;BME280;5642;50.830;12.082;2023-09-18T04:20:23;98815.16;;;17.05;42.71
11172;BME280;5642;50.830;12.082;2023-09-18T04:23:17;98813.09;;;17.10;42.90
11172;BME280;5642;50.830;12.082;2023-09-18T04:25:49;98804.81;;;17.02;42.84
11172;BME280;5642;50.830;12.082;2023-09-18T04:28:16;98803.53;;;17.08;42.75
11172;BME280;5642;50.830;12.082;2023-09-18T04:30:47;98791.69;;;17.01;42.78
11172;BME280;5642;50.830;12.082;2023-09-18T04:33:24;98778.78;;;16.96;42.85
11172;BME280;5642;50.830;12.082;2023-09-18T04:36:23;98799.84;;;16.98;42.99
11172;BME280;5642;50.830;12.082;2023-09-18T04:38:49;98790.94;;;16.99;42.93
11172;BME280;5642;50.830;12.082;2023-09-18T04:41:16;98762.03;;;16.83;42.89
11172;BME280;5642;50.830;12.082;2023-09-18T04:43:44;98775.28;;;16.96;43.11
11172;BME280;5642;50.830;12.082;2023-09-18T04:46:17;98787.56;;;16.97;42.81
11172;BME280;5642;50.830;12.082;2023-09-18T04:48:57;98784.16;;;16.95;42.85
11172;BME280;5642;50.830;12.082;2023-09-18T04:51:23;98718.84;;;16.43;43.00
11172;BME280;5642;50.830;12.082;2023-09-18T04:53:49;98786.16;;;16.91;43.09
11172;BME280;5642;50.830;12.082;2023-09-18T04:56:43;98745.22;;;16.57;43.08
11172;BME280;5642;50.830;12.082;2023-09-18T04:59:09;98774.50;;;16.81;43.17
11172;BME280;5642;50.830;12.082;2023-09-18T05:01:59;98765.47;;;16.71;43.18
11172;BME280;5642;50.830;12.082;2023-09-18T05:04:25;98779.38;;;16.87;43.27
11172;BME280;5642;50.830;12.082;2023-09-18T05:06:52;98746.78;;;16.74;43.34
11172;BME280;5642;50.830;12.082;2023-09-18T05:09:18;98768.69;;;16.89;43.08
11172;BME280;5642;50.830;12.082;2023-09-18T05:11:44;98741.59;;;16.72;43.23
11172;BME280;5642;50.830;12.082;2023-09-18T05:14:33;98774.41;;;16.82;43.19
11172;BME280;5642;50.830;12.082;2023-09-18T05:17:04;98775.25;;;16.83;43.24
11172;BME280;5642;50.830;12.082;2023-09-18T05:19:30;98731.91;;;16.59;43.03
11172;BME280;5642;50.830;12.082;2023-09-18T05:21:58;98752.25;;;16.71;43.13
11172;BME280;5642;50.830;12.082;2023-09-18T05:24:25;98778.22;;;16.91;43.27
11172;BME280;5642;50.830;12.082;2023-09-18T05:27:04;98738.84;;;16.74;43.23
11172;BME280;5642;50.830;12.082;2023-09-18T05:29:35;98766.81;;;16.91;43.12
11172;BME280;5642;50.830;12.082;2023-09-18T05:32:03;98748.28;;;16.91;43.29
11172;BME280;5642;50.830;12.082;2023-09-18T05:34:29;98751.03;;;17.02;43.38
11172;BME280;5642;50.830;12.082;2023-09-18T05:36:56;98748.50;;;17.13;43.22
11172;BME280;5642;50.830;12.082;2023-09-18T05:39:22;98690.81;;;16.93;42.88
11172;BME280;5642;50.830;12.082;2023-09-18T05:41:49;98751.59;;;17.45;42.98
11172;BME280;5642;50.830;12.082;2023-09-18T05:44:16;98715.38;;;17.45;42.90
11172;BME280;5642;50.830;12.082;2023-09-18T05:46:42;98738.00;;;17.75;42.95
11172;BME280;5642;50.830;12.082;2023-09-18T05:49:09;98656.69;;;17.51;42.67
11172;BME280;5642;50.830;12.082;2023-09-18T05:51:36;98722.84;;;18.13;42.64
11172;BME280;5642;50.830;12.082;2023-09-18T05:54:04;98712.75;;;18.18;42.50
11172;BME280;5642;50.830;12.082;2023-09-18T05:56:30;98723.13;;;18.45;42.46
11172;BME280;5642;50.830;12.082;2023-09-18T05:58:56;98721.44;;;18.68;42.32
11172;BME280;5642;50.830;12.082;2023-09-18T06:01:26;98704.75;;;18.90;42.46
11172;BME280;5642;50.830;12.082;2023-09-18T06:04:04;98705.38;;;19.15;42.12
11172;BME280;5642;50.830;12.082;2023-09-18T06:06:35;98693.81;;;19.39;42.03
11172;BME280;5642;50.830;12.082;2023-09-18T06:09:02;98664.81;;;19.36;41.78
11172;BME280;5642;50.830;12.082;2023-09-18T06:11:45;98702.72;;;19.82;41.74
11172;BME280;5642;50.830;12.082;2023-09-18T06:14:12;98706.66;;;20.10;41.88
11172;BME280;5642;50.830;12.082;2023-09-18T06:16:39;98675.63;;;20.43;41.35
11172;BME280;5642;50.830;12.082;2023-09-18T06:19:20;98653.59;;;20.73;41.60
11172;BME280;5642;50.830;12.082;2023-09-18T06:21:47;98601.94;;;20.85;41.52
11172;BME280;5642;50.830;12.082;2023-09-18T06:24:15;98694.81;;;21.50;41.22
11172;BME280;5642;50.830;12.082;2023-09-18T06:26:46;98609.56;;;21.20;41.35
11172;BME280;5642;50.830;12.082;2023-09-18T06:29:16;98674.59;;;21.87;41.27
11172;BME280;5642;50.830;12.082;2023-09-18T06:31:44;98685.34;;;22.36;41.22
11172;BME280;5642;50.830;12.082;2023-09-18T06:34:13;98647.53;;;22.59;41.04
11172;BME280;5642;50.830;12.082;2023-09-18T06:36:55;98674.78;;;23.38;40.55
11172;BME280;5642;50.830;12.082;2023-09-18T06:39:21;98677.59;;;24.01;40.05
11172;BME280;5642;50.830;12.082;2023-09-18T06:41:53;98687.22;;;24.83;39.86
11172;BME280;5642;50.830;12.082;2023-09-18T06:44:23;98676.06;;;25.39;39.32
11172;BME280;5642;50.830;12.082;2023-09-18T06:46:52;98677.28;;;25.70;38.91
11172;BME280;5642;50.830;12.082;2023-09-18T06:49:21;98674.72;;;25.61;39.34
11172;BME280;5642;50.830;12.082;2023-09-18T06:51:55;98671.56;;;25.40;39.25
11172;BME280;5642;50.830;12.082;2023-09-18T06:54:22;98615.50;;;24.94;39.84
11172;BME280;5642;50.830;12.082;2023-09-18T06:56:50;98644.84;;;24.96;39.73
11172;BME280;5642;50.830;12.082;2023-09-18T06:59:17;98648.59;;;24.85;39.92
11172;BME280;5642;50.830;12.082;2023-09-18T07:02:00;98652.34;;;24.75;40.40
11172;BME280;5642;50.830;12.082;2023-09-18T07:04:35;98620.81;;;24.43;40.55
11172;BME280;5642;50.830;12.082;2023-09-18T07:07:01;98660.25;;;24.58;40.50
11172;BME280;5642;50.830;12.082;2023-09-18T07:09:35;98626.50;;;24.22;40.90
11172;BME280;5642;50.830;12.082;2023-09-18T07:12:10;98661.03;;;24.33;41.02
11172;BME280;5642;50.830;12.082;2023-09-18T07:14:37;98634.41;;;24.14;40.92
11172;BME280;5642;50.830;12.082;2023-09-18T07:17:30;98680.38;;;24.45;40.85
11172;BME280;5642;50.830;12.082;2023-09-18T07:19:57;98665.84;;;24.65;40.86
11172;BME280;5642;50.830;12.082;2023-09-18T07:22:24;98661.13;;;25.36;40.32
11172;BME280;5642;50.830;12.082;2023-09-18T07:24:51;98670.88;;;26.13;39.84
11172;BME280;5642;50.830;12.082;2023-09-18T07:27:18;98619.59;;;26.57;39.46
11172;BME280;5642;50.830;12.082;2023-09-18T07:29:45;98591.13;;;27.11;38.82
11172;BME280;5642;50.830;12.082;2023-09-18T07:32:12;98600.72;;;28.15;38.56
11172;BME280;5642;50.830;12.082;2023-09-18T07:34:51;98660.31;;;29.17;38.21
11172;BME280;5642;50.830;12.082;2023-09-18T07:37:24;98587.34;;;29.04;37.95
11172;BME280;5642;50.830;12.082;2023-09-18T07:39:55;98632.19;;;29.85;37.69
11172;BME280;5642;50.830;12.082;2023-09-18T07:42:45;98618.06;;;30.83;37.02
11172;BME280;5642;50.830;12.082;2023-09-18T07:45:15;98605.59;;;31.51;36.42
11172;BME280;5642;50.830;12.082;2023-09-18T07:47:42;98637.50;;;32.03;36.80
11172;BME280;5642;50.830;12.082;2023-09-18T07:50:09;98589.56;;;31.97;36.31
11172;BME280;5642;50.830;12.082;2023-09-18T07:52:35;98628.34;;;32.11;36.44
11172;BME280;5642;50.830;12.082;2023-09-18T07:55:06;98561.03;;;31.47;36.72
11172;BME280;5642;50.830;12.082;2023-09-18T07:57:33;98621.56;;;31.74;36.80
11172;BME280;5642;50.830;12.082;2023-09-18T08:00:07;98589.72;;;31.76;36.14
11172;BME280;5642;50.830;12.082;2023-09-18T08:02:40;98635.72;;;32.37;36.20
11172;BME280;5642;50.830;12.082;2023-09-18T08:05:08;98605.09;;;32.62;35.96
11172;BME280;5642;50.830;12.082;2023-09-18T08:07:36;98645.56;;;32.90;35.74
11172;BME280;5642;50.830;12.082;2023-09-18T08:10:22;98606.34;;;32.60;35.63
11172;BME280;5642;50.830;12.082;2023-09-18T08:12:54;98597.97;;;32.28;36.04
11172;BME280;5642;50.830;12.082;2023-09-18T08:15:25;98668.25;;;32.37;35.79
11172;BME280;5642;50.830;12.082;2023-09-18T08:18:06;98587.91;;;31.55;36.14
11172;BME280;5642;50.830;12.082;2023-09-18T08:20:35;98599.69;;;31.34;36.63
11172;BME280;5642;50.830;12.082;2023-09-18T08:23:04;98641.00;;;31.15;36.47
11172;BME280;5642;50.830;12.082;2023-09-18T08:25:32;98636.25;;;30.68;36.56
11172;BME280;5642;50.830;12.082;2023-09-18T08:27:59;98598.59;;;30.03;36.79
11172;BME280;5642;50.830;12.082;2023-09-18T08:30:26;98657.22;;;30.09;36.96
11172;BME280;5642;50.830;12.082;2023-09-18T08:32:58;98642.47;;;29.75;37.00
11172;BME280;5642;50.830;12.082;2023-09-18T08:35:25;98635.59;;;29.58;36.95
11172;BME280;5642;50.830;12.082;2023-09-18T08:37:56;98562.59;;;29.01;37.04
11172;BME280;5642;50.830;12.082;2023-09-18T08:40:27;98641.63;;;29.31;37.13
11172;BME280;5642;50.830;12.082;2023-09-18T08:42:56;98589.25;;;28.81;37.41
11172;BME280;5642;50.830;12.082;2023-09-18T08:45:43;98645.72;;;28.97;37.07
11172;BME280;5642;50.830;12.082;2023-09-18T08:48:16;98579.78;;;28.48;37.00
11172;BME280;5642;50.830;12.082;2023-09-18T08:50:51;98629.69;;;28.58;37.06
11172;BME280;5642;50.830;12.082;2023-09-18T08:53:17;98645.22;;;28.56;37.47
11172;BME280;5642;50.830;12.082;2023-09-18T08:55:47;98644.38;;;28.56;37.45
11172;BME280;5642;50.830;12.082;2023-09-18T08:58:14;98577.94;;;28.25;37.23
11172;BME280;5642;50.830;12.082;2023-09-18T09:00:41;98626.63;;;28.61;37.08
11172;BME280;5642;50.830;12.082;2023-09-18T09:03:15;98639.84;;;28.71;37.07
11172;BME280;5642;50.830;12.082;2023-09-18T09:05:44;98583.31;;;28.48;37.00
11172;BME280;5642;50.830;12.082;2023-09-18T09:08:16;98628.19;;;28.78;36.98
11172;BME280;5642;50.830;12.082;2023-09-18T09:10:49;98638.72;;;28.88;36.98
11172;BME280;5642;50.830;12.082;2023-09-18T09:13:17;98626.44;;;28.86;36.96
11172;BME280;5642;50.830;12.082;2023-09-18T09:15:45;98607.22;;;28.89;36.90
11172;BME280;5642;50.830;12.082;2023-09-18T09:18:14;98606.47;;;28.95;37.18
11172;BME280;5642;50.830;12.082;2023-09-18T09:21:03;98637.00;;;29.25;36.61
11172;BME280;5642;50.830;12.082;2023-09-18T09:23:48;98637.56;;;29.35;36.94
11172;BME280;5642;50.830;12.082;2023-09-18T09:26:18;98654.31;;;29.59;36.73
11172;BME280;5642;50.830;12.082;2023-09-18T09:28:52;98643.88;;;29.71;36.57
11172;BME280;5642;50.830;12.082;2023-09-18T09:31:27;98638.38;;;29.79;36.81
11172;BME280;5642;50.830;12.082;2023-09-18T09:33:54;98640.41;;;29.77;36.69
11172;BME280;5642;50.830;12.082;2023-09-18T09:36:30;98633.53;;;29.75;36.21
11172;BME280;5642;50.830;12.082;2023-09-18T09:38:57;98632.03;;;29.72;36.38
11172;BME280;5642;50.830;12.082;2023-09-18T09:41:27;98635.97;;;29.70;36.37
11172;BME280;5642;50.830;12.082;2023-09-18T09:43:57;98643.69;;;29.73;36.36
11172;BME280;5642;50.830;12.082;2023-09-18T09:46:52;98640.63;;;29.76;36.46
11172;BME280;5642;50.830;12.082;2023-09-18T09:49:19;98644.41;;;29.81;36.55
11172;BME280;5642;50.830;12.082;2023-09-18T09:51:46;98652.34;;;29.98;36.69
11172;BME280;5642;50.830;12.082;2023-09-18T09:54:14;98648.53;;;30.13;36.45
11172;BME280;5642;50.830;12.082;2023-09-18T09:57:02;98641.69;;;30.32;36.22
11172;BME280;5642;50.830;12.082;2023-09-18T09:59:29;98597.03;;;30.15;36.11
11172;BME280;5642;50.830;12.082;2023-09-18T10:02:01;98563.34;;;30.11;35.78
11172;BME280;5642;50.830;12.082;2023-09-18T10:04:40;98563.28;;;30.25;36.13
11172;BME280;5642;50.830;12.082;2023-09-18T10:07:09;98634.97;;;30.92;35.65
11172;BME280;5642;50.830;12.082;2023-09-18T10:09:41;98626.69;;;31.00;36.05
11172;BME280;5642;50.830;12.082;2023-09-18T10:12:15;98548.09;;;30.73;36.06
11172;BME280;5642;50.830;12.082;2023-09-18T10:14:50;98600.06;;;31.25;36.26
11172;BME280;5642;50.830;12.082;2023-09-18T10:17:26;98614.56;;;31.51;36.00
11172;BME280;5642;50.830;12.082;2023-09-18T10:20:06;98640.09;;;31.77;35.97
11172;BME280;5642;50.830;12.082;2023-09-18T10:22:43;98590.31;;;31.71;35.60
11172;BME280;5642;50.830;12.082;2023-09-18T10:25:21;98623.59;;;32.19;35.49
11172;BME280;5642;50.830;12.082;2023-09-18T10:27:50;98600.91;;;32.34;35.60
11172;BME280;5642;50.830;12.082;2023-09-18T10:30:25;98580.28;;;32.52;35.67
11172;BME280;5642;50.830;12.082;2023-09-18T10:32:54;98610.09;;;32.98;35.27
11172;BME280;5642;50.830;12.082;2023-09-18T10:35:23;98582.13;;;32.98;35.43
11172;BME280;5642;50.830;12.082;2023-09-18T10:37:54;98564.19;;;33.03;35.27
11172;BME280;5642;50.830;12.082;2023-09-18T10:40:23;98550.41;;;33.05;34.71
11172;BME280;5642;50.830;12.082;2023-09-18T10:42:57;98602.06;;;33.56;34.81
11172;BME280;5642;50.830;12.082;2023-09-18T10:45:26;98573.72;;;33.39;34.69
11172;BME280;5642;50.830;12.082;2023-09-18T10:47:53;98607.44;;;33.69;34.59
11172;BME280;5642;50.830;12.082;2023-09-18T10:50:27;98615.53;;;33.83;34.71
11172;BME280;5642;50.830;12.082;2023-09-18T10:52:57;98573.84;;;33.57;34.13
11172;BME280;5642;50.830;12.082;2023-09-18T10:55:26;98607.88;;;33.66;34.14
11172;BME280;5642;50.830;12.082;2023-09-18T10:57:58;98605.84;;;33.49;34.66
11172;BME280;5642;50.830;12.082;2023-09-18T11:00:26;98594.03;;;33.23;34.16
11172;BME280;5642;50.830;12.082;2023-09-18T11:05:44;98594.63;;;33.32;34.36
11172;BME280;5642;50.830;12.082;2023-09-18T11:08:33;98601.44;;;33.48;34.39
11172;BME280;5642;50.830;12.082;2023-09-18T11:11:09;98605.84;;;33.49;34.51
11172;BME280;5642;50.830;12.082;2023-09-18T11:13:52;98572.91;;;33.25;34.44
11172;BME280;5642;50.830;12.082;2023-09-18T11:16:40;98618.38;;;33.43;34.20
11172;BME280;5642;50.830;12.082;2023-09-18T11:19:12;98623.22;;;33.28;34.09
11172;BME280;5642;50.830;12.082;2023-09-18T11:21:39;98589.69;;;32.89;34.18
11172;BME280;5642;50.830;12.082;2023-09-18T11:24:19;98635.97;;;33.08;34.07
11172;BME280;5642;50.830;12.082;2023-09-18T11:26:52;98615.34;;;32.80;34.05
11172;BME280;5642;50.830;12.082;2023-09-18T11:29:22;98634.75;;;32.77;34.17
11172;BME280;5642;50.830;12.082;2023-09-18T11:31:52;98629.69;;;32.48;34.51
11172;BME280;5642;50.830;12.082;2023-09-18T11:34:30;98565.78;;;31.86;34.52
11172;BME280;5642;50.830;12.082;2023-09-18T11:37:26;98634.13;;;31.88;34.28
11172;BME280;5642;50.830;12.082;2023-09-18T11:39:54;98582.41;;;31.35;34.29
11172;BME280;5642;50.830;12.082;2023-09-18T11:42:21;98617.38;;;31.30;34.62
11172;BME280;5642;50.830;12.082;2023-09-18T11:44:54;98656.88;;;31.25;34.88
11172;BME280;5642;50.830;12.082;2023-09-18T11:47:24;98649.31;;;30.92;34.50
11172;BME280;5642;50.830;12.082;2023-09-18T11:49:57;98620.84;;;30.47;34.76
11172;BME280;5642;50.830;12.082;2023-09-18T11:52:43;98701.91;;;30.62;35.13
11172;BME280;5642;50.830;12.082;2023-09-18T11:55:13;98661.69;;;30.16;34.89
11172;BME280;5642;50.830;12.082;2023-09-18T11:57:43;98702.28;;;30.23;34.91
11172;BME280;5642;50.830;12.082;2023-09-18T12:00:19;98712.09;;;30.09;35.21
11172;BME280;5642;50.830;12.082;2023-09-18T12:02:53;98678.13;;;29.71;35.33
11172;BME280;5642;50.830;12.082;2023-09-18T12:05:25;98668.72;;;29.52;34.97
11172;BME280;5642;50.830;12.082;2023-09-18T12:07:54;98714.03;;;29.71;35.40
11172;BME280;5642;50.830;12.082;2023-09-18T12:10:25;98675.03;;;29.30;35.50
11172;BME280;5642;50.830;12.082;2023-09-18T12:13:13;98730.88;;;29.44;35.14
11172;BME280;5642;50.830;12.082;2023-09-18T12:15:59;98726.66;;;29.27;35.54
11172;BME280;5642;50.830;12.082;2023-09-18T12:18:29;98725.63;;;29.28;35.73
11172;BME280;5642;50.830;12.082;2023-09-18T12:21:08;98659.44;;;28.88;35.57
11172;BME280;5642;50.830;12.082;2023-09-18T12:23:40;98715.63;;;29.13;35.42
11172;BME280;5642;50.830;12.082;2023-09-18T12:26:37;98681.19;;;28.86;35.49
11172;BME280;5642;50.830;12.082;2023-09-18T12:29:04;98677.97;;;28.91;35.54
11172;BME280;5642;50.830;12.082;2023-09-18T12:31:32;98732.41;;;29.24;35.44
11172;BME280;5642;50.830;12.082;2023-09-18T12:33:58;98686.50;;;28.94;35.40
11172;BME280;5642;50.830;12.082;2023-09-18T12:36:27;98674.59;;;28.89;35.69
11172;BME280;5642;50.830;12.082;2023-09-18T12:39:04;98738.47;;;29.26;35.90
11172;BME280;5642;50.830;12.082;2023-09-18T12:41:32;98700.41;;;29.06;35.73
11172;BME280;5642;50.830;12.082;2023-09-18T12:43:59;98720.50;;;29.18;35.80
11172;BME280;5642;50.830;12.082;2023-09-18T12:46:29;98689.56;;;28.91;35.94
11172;BME280;5642;50.830;12.082;2023-09-18T12:48:55;98736.56;;;29.11;35.94
11172;BME280;5642;50.830;12.082;2023-09-18T12:51:31;98741.03;;;29.04;36.13
11172;BME280;5642;50.830;12.082;2023-09-18T12:54:01;98750.84;;;28.97;36.11
11172;BME280;5642;50.830;12.082;2023-09-18T12:56:39;98746.59;;;28.80;35.83
11172;BME280;5642;50.830;12.082;2023-09-18T12:59:05;98744.94;;;28.71;36.31
11172;BME280;5642;50.830;12.082;2023-09-18T13:01:32;98738.00;;;28.54;36.27
11172;BME280;5642;50.830;12.082;2023-09-18T13:03:58;98692.41;;;28.21;36.40
11172;BME280;5642;50.830;12.082;2023-09-18T13:06:32;98715.97;;;28.27;36.14
11172;BME280;5642;50.830;12.082;2023-09-18T13:09:16;98742.81;;;28.35;36.50
11172;BME280;5642;50.830;12.082;2023-09-18T13:11:56;98718.03;;;28.09;36.28
11172;BME280;5642;50.830;12.082;2023-09-18T13:14:24;98739.59;;;28.01;36.46
11172;BME280;5642;50.830;12.082;2023-09-18T13:17:13;98753.75;;;27.95;36.69
11172;BME280;5642;50.830;12.082;2023-09-18T13:19:48;98699.44;;;27.36;36.70
11172;BME280;5642;50.830;12.082;2023-09-18T13:22:41;98777.09;;;27.63;36.83
11172;BME280;5642;50.830;12.082;2023-09-18T13:25:10;98721.47;;;27.15;36.98
11172;BME280;5642;50.830;12.082;2023-09-18T13:27:40;98712.78;;;26.97;37.16
11172;BME280;5642;50.830;12.082;2023-09-18T13:30:08;98767.03;;;27.25;37.36
11172;BME280;5642;50.830;12.082;2023-09-18T13:32:37;98727.91;;;26.98;37.45